ěÝzenÝ letovÚho provozu ╚eskÚ republiky
Letiste: LKKB Aktualizace: 10.08.2020 05:30:26  UTC
 METAR LKKB 10.08. 05:30 ...
METAR LKKB 100530Z 00000KT CAVOK 21/18 Q1017 NOSIG RMK BLU BLU=
 TAF LKKB 09.08. 23:00 ...
TAF LKKB 092300Z 1000/1100 VRB02KT CAVOK      BECMG 1010/1012 06010KT SCT040      TEMPO 1010/1018 09014KT SHRA BKN035TCU      PROB40 TEMPO 1012/1017 12014G24KT 7000 TSRA SCT035CB BKN040=